createdAt,value
2017-06-26T00:00:44.105Z,14.60
2017-06-26T00:03:10.370Z,14.50
2017-06-26T00:05:36.693Z,14.60
2017-06-26T00:08:02.970Z,14.70
2017-06-26T00:10:29.284Z,14.50
2017-06-26T00:12:55.561Z,14.60
2017-06-26T00:15:22.594Z,14.60
2017-06-26T00:17:48.885Z,14.50
2017-06-26T00:20:15.153Z,14.60
2017-06-26T00:22:41.448Z,14.60
2017-06-26T00:25:07.714Z,14.50
2017-06-26T00:27:34.009Z,14.50
2017-06-26T00:30:00.297Z,14.70
2017-06-26T00:32:27.322Z,14.70
2017-06-26T00:34:53.600Z,14.70
2017-06-26T00:37:19.887Z,14.80
2017-06-26T00:39:46.160Z,14.80
2017-06-26T00:42:12.454Z,14.70
2017-06-26T00:44:39.479Z,14.60
2017-06-26T00:47:07.363Z,14.60
2017-06-26T00:49:33.641Z,14.60
2017-06-26T00:51:59.934Z,14.60
2017-06-26T00:54:26.351Z,14.50
2017-06-26T00:56:52.679Z,14.60
2017-06-26T00:59:18.950Z,14.60
2017-06-26T01:01:45.218Z,14.70
2017-06-26T01:04:11.492Z,14.70
2017-06-26T01:06:37.767Z,14.70
2017-06-26T01:09:04.508Z,14.70
2017-06-26T01:11:30.801Z,14.70
2017-06-26T01:13:57.093Z,14.70
2017-06-26T01:16:23.366Z,14.50
2017-06-26T01:18:50.050Z,14.60
2017-06-26T01:21:17.105Z,14.50
2017-06-26T01:23:44.147Z,14.60
2017-06-26T01:26:10.421Z,14.60
2017-06-26T01:28:36.691Z,14.60
2017-06-26T01:31:03.007Z,14.60
2017-06-26T01:33:29.296Z,14.80
2017-06-26T01:35:55.581Z,14.70
2017-06-26T01:38:21.879Z,14.60
2017-06-26T01:40:48.170Z,14.60
2017-06-26T01:43:14.485Z,14.70
2017-06-26T01:45:40.793Z,14.80
2017-06-26T01:48:07.102Z,14.70
2017-06-26T01:50:33.415Z,14.70
2017-06-26T01:52:59.738Z,14.60
2017-06-26T01:55:26.043Z,14.50
2017-06-26T01:57:53.109Z,14.70
2017-06-26T02:00:20.171Z,14.50
2017-06-26T02:02:46.496Z,14.50
2017-06-26T02:05:12.789Z,14.50
2017-06-26T02:07:39.077Z,14.50
2017-06-26T02:10:05.390Z,14.50
2017-06-26T02:12:31.675Z,14.60
2017-06-26T02:14:57.953Z,14.60
2017-06-26T02:17:24.235Z,14.50
2017-06-26T02:19:50.516Z,14.50
2017-06-26T02:22:16.787Z,14.60
2017-06-26T02:24:43.058Z,14.40
2017-06-26T02:27:09.359Z,14.30
2017-06-26T02:29:35.649Z,14.40
2017-06-26T02:32:01.918Z,14.40
2017-06-26T02:34:28.969Z,14.50
2017-06-26T02:36:55.254Z,14.40
2017-06-26T02:39:21.584Z,14.40
2017-06-26T02:41:47.864Z,14.30
2017-06-26T02:44:14.909Z,14.20
2017-06-26T02:46:41.222Z,14.20
2017-06-26T02:49:08.256Z,14.30
2017-06-26T02:51:34.550Z,14.20
2017-06-26T02:54:00.831Z,14.30
2017-06-26T02:56:27.878Z,14.40
2017-06-26T02:58:54.907Z,14.30
2017-06-26T03:01:21.186Z,14.30
2017-06-26T03:03:47.494Z,14.30
2017-06-26T03:06:14.552Z,14.30
2017-06-26T03:08:40.857Z,14.30
2017-06-26T03:11:07.166Z,14.30
2017-06-26T03:13:33.438Z,14.20
2017-06-26T03:16:00.448Z,14.40
2017-06-26T03:18:26.741Z,14.40
2017-06-26T03:20:53.033Z,14.30
2017-06-26T03:23:19.326Z,14.30
2017-06-26T03:25:45.588Z,14.30
2017-06-26T03:28:11.891Z,14.30
2017-06-26T03:30:38.224Z,14.40
2017-06-26T03:33:04.502Z,14.30
2017-06-26T03:35:30.799Z,14.20
2017-06-26T03:37:57.062Z,14.20
2017-06-26T03:40:23.359Z,14.30
2017-06-26T03:42:49.641Z,14.50
2017-06-26T03:45:15.937Z,14.40
2017-06-26T03:47:42.232Z,14.30
2017-06-26T03:50:08.535Z,14.40
2017-06-26T03:52:34.802Z,14.30
2017-06-26T03:55:01.101Z,14.30
2017-06-26T03:57:27.385Z,14.20
2017-06-26T03:59:54.410Z,14.30
2017-06-26T04:02:20.692Z,14.20
2017-06-26T04:04:46.978Z,14.30
2017-06-26T04:07:13.998Z,14.40
2017-06-26T04:09:40.303Z,14.40
2017-06-26T04:12:06.587Z,14.50
2017-06-26T04:14:33.611Z,14.40
2017-06-26T04:16:59.886Z,14.30
2017-06-26T04:19:26.162Z,14.20
2017-06-26T04:21:52.525Z,14.20
2017-06-26T04:24:19.554Z,14.30
2017-06-26T04:26:45.875Z,14.20
2017-06-26T04:29:12.149Z,14.30
2017-06-26T04:31:38.441Z,14.50
2017-06-26T04:34:04.713Z,14.50
2017-06-26T04:36:31.018Z,14.50
2017-06-26T04:38:57.281Z,14.50
2017-06-26T04:41:23.589Z,14.40
2017-06-26T04:43:50.622Z,14.30
2017-06-26T04:46:17.623Z,14.10
2017-06-26T04:48:43.911Z,14.10
2017-06-26T04:51:10.189Z,14.10
2017-06-26T04:53:36.467Z,14.10
2017-06-26T04:56:03.470Z,14.10
2017-06-26T04:58:29.785Z,14.10
2017-06-26T05:00:56.058Z,14.20
2017-06-26T05:03:23.101Z,14.20
2017-06-26T05:05:49.378Z,14.20
2017-06-26T05:08:15.675Z,14.30
2017-06-26T05:10:42.695Z,14.60
2017-06-26T05:13:09.728Z,14.60
2017-06-26T05:15:36.004Z,14.50
2017-06-26T05:18:03.009Z,14.30
2017-06-26T05:20:29.294Z,14.30
2017-06-26T05:22:55.565Z,14.40
2017-06-26T05:25:21.859Z,14.50
2017-06-26T05:27:48.149Z,14.50
2017-06-26T05:30:15.219Z,14.40
2017-06-26T05:32:41.521Z,14.30
2017-06-26T05:35:07.869Z,14.30
2017-06-26T05:37:34.157Z,14.30
2017-06-26T05:40:00.438Z,14.40
2017-06-26T05:42:26.728Z,14.40
2017-06-26T05:44:53.013Z,14.50
2017-06-26T05:47:19.367Z,14.40
2017-06-26T05:49:45.675Z,14.60
2017-06-26T05:52:11.953Z,14.60
2017-06-26T05:54:38.234Z,14.60
2017-06-26T05:57:04.542Z,14.60
2017-06-26T05:59:31.556Z,14.70
2017-06-26T06:01:57.862Z,14.70
2017-06-26T06:04:24.167Z,14.90
2017-06-26T06:06:50.478Z,15.00
2017-06-26T06:09:17.493Z,15.10
2017-06-26T06:11:43.765Z,15.00
2017-06-26T06:14:10.062Z,14.90
2017-06-26T06:16:37.107Z,15.00
2017-06-26T06:19:04.147Z,15.00
2017-06-26T06:21:31.189Z,15.10
2017-06-26T06:23:58.259Z,15.20
2017-06-26T06:26:24.556Z,15.10
2017-06-26T06:28:50.862Z,15.30
2017-06-26T06:31:17.138Z,15.10
2017-06-26T06:33:44.197Z,15.10
2017-06-26T06:36:10.477Z,15.00
2017-06-26T06:38:36.762Z,15.30
2017-06-26T06:41:03.043Z,15.40
2017-06-26T06:43:29.319Z,15.30
2017-06-26T06:45:56.348Z,15.20
2017-06-26T06:48:23.379Z,15.30
2017-06-26T06:50:49.659Z,15.30
2017-06-26T06:53:15.913Z,15.30
2017-06-26T06:55:42.184Z,15.50
2017-06-26T06:58:09.197Z,15.50
2017-06-26T07:00:35.456Z,15.40
2017-06-26T07:03:02.495Z,15.60
2017-06-26T07:05:28.753Z,15.60
2017-06-26T07:07:55.766Z,15.50
2017-06-26T07:10:22.036Z,15.50
2017-06-26T07:12:49.268Z,15.50
2017-06-26T07:15:16.279Z,15.90
2017-06-26T07:17:42.565Z,15.90
2017-06-26T07:20:08.848Z,16.00
2017-06-26T07:22:35.137Z,15.80
2017-06-26T07:25:01.419Z,15.90
2017-06-26T07:27:27.684Z,16.00
2017-06-26T07:29:53.967Z,15.90
2017-06-26T07:32:20.237Z,15.80
2017-06-26T07:34:46.520Z,16.00
2017-06-26T07:37:12.781Z,15.80
2017-06-26T07:39:39.805Z,16.00
2017-06-26T07:42:06.105Z,16.00
2017-06-26T07:44:32.406Z,16.00
2017-06-26T07:46:58.725Z,15.90
2017-06-26T07:49:25.022Z,16.10
2017-06-26T07:51:51.331Z,16.00
2017-06-26T07:54:17.622Z,16.10
2017-06-26T07:56:43.977Z,16.30
2017-06-26T07:59:10.288Z,16.30
2017-06-26T08:01:43.638Z,16.20
2017-06-26T08:04:25.653Z,16.20
2017-06-26T08:06:52.706Z,16.40
2017-06-26T08:09:19.748Z,16.40
2017-06-26T08:11:46.792Z,16.40
2017-06-26T08:14:13.813Z,16.30
2017-06-26T08:16:40.099Z,16.30
2017-06-26T08:19:06.371Z,16.60
2017-06-26T08:21:32.684Z,16.60
2017-06-26T08:23:58.949Z,16.70
2017-06-26T08:26:25.961Z,16.30
2017-06-26T08:28:52.251Z,16.20
2017-06-26T08:31:18.527Z,16.40
2017-06-26T08:33:44.812Z,16.50
2017-06-26T08:36:11.842Z,16.70
2017-06-26T08:38:38.879Z,16.80
2017-06-26T08:41:05.164Z,16.70
2017-06-26T08:43:31.468Z,16.90
2017-06-26T08:45:57.734Z,16.90
2017-06-26T08:48:24.025Z,17.20
2017-06-26T08:50:50.299Z,17.00
2017-06-26T08:53:16.599Z,17.10
2017-06-26T08:55:42.883Z,17.10
2017-06-26T08:58:09.913Z,17.60
2017-06-26T09:00:36.332Z,17.50
2017-06-26T09:03:02.615Z,17.50
2017-06-26T09:05:29.637Z,17.00
2017-06-26T09:07:55.920Z,17.00
2017-06-26T09:10:22.200Z,17.10
2017-06-26T09:12:48.473Z,17.30
2017-06-26T09:15:14.769Z,17.20
2017-06-26T09:17:41.786Z,17.50
2017-06-26T09:20:08.082Z,17.50
2017-06-26T09:22:34.354Z,17.10
2017-06-26T09:25:00.622Z,17.20
2017-06-26T09:27:26.900Z,17.20
2017-06-26T09:29:53.174Z,16.90
2017-06-26T09:32:19.461Z,17.20
2017-06-26T09:34:45.743Z,17.60
2017-06-26T09:37:12.018Z,17.90
2017-06-26T09:39:38.304Z,17.80
2017-06-26T09:42:04.581Z,17.40
2017-06-26T09:44:30.876Z,17.30
2017-06-26T09:46:57.207Z,17.60
2017-06-26T09:49:23.551Z,17.50
2017-06-26T09:51:49.843Z,17.60
2017-06-26T09:54:16.165Z,17.60
2017-06-26T09:56:43.184Z,18.00
2017-06-26T09:59:09.468Z,17.90
2017-06-26T10:01:35.734Z,18.00
2017-06-26T10:04:02.008Z,17.80
2017-06-26T10:06:28.271Z,17.60
2017-06-26T10:08:54.561Z,17.70
2017-06-26T10:11:20.822Z,17.70
2017-06-26T10:13:47.100Z,17.90
2017-06-26T10:16:14.136Z,17.90
2017-06-26T10:18:41.204Z,17.80
2017-06-26T10:21:08.235Z,17.80
2017-06-26T10:23:35.279Z,18.00
2017-06-26T10:26:01.555Z,18.00
2017-06-26T10:28:27.837Z,17.80
2017-06-26T10:30:54.894Z,18.00
2017-06-26T10:33:21.913Z,18.00
2017-06-26T10:35:48.193Z,17.90
2017-06-26T10:38:14.464Z,18.00
2017-06-26T10:40:40.763Z,17.90
2017-06-26T10:43:07.051Z,18.00
2017-06-26T10:45:33.349Z,18.10
2017-06-26T10:47:59.640Z,17.60
2017-06-26T10:50:25.937Z,17.60
2017-06-26T10:52:52.241Z,17.60
2017-06-26T10:55:18.513Z,17.40
2017-06-26T10:57:45.541Z,17.10
2017-06-26T11:00:11.817Z,17.10
2017-06-26T11:02:38.131Z,16.90
2017-06-26T11:05:04.412Z,17.10
2017-06-26T11:07:30.706Z,17.40
2017-06-26T11:09:56.964Z,17.40
2017-06-26T11:12:23.245Z,17.70
2017-06-26T11:14:49.617Z,17.40
2017-06-26T11:17:16.543Z,17.30
2017-06-26T11:19:43.226Z,17.40
2017-06-26T11:22:09.610Z,17.30
2017-06-26T11:24:43.009Z,18.00
2017-06-26T11:27:09.299Z,18.50
2017-06-26T11:29:36.335Z,18.30
2017-06-26T11:32:02.605Z,18.20
2017-06-26T11:34:28.878Z,18.00
2017-06-26T11:36:55.230Z,18.10
2017-06-26T11:39:22.270Z,18.10
2017-06-26T11:41:48.556Z,18.00
2017-06-26T11:44:14.864Z,17.90
2017-06-26T11:46:41.285Z,18.10
2017-06-26T11:49:07.623Z,18.30
2017-06-26T11:51:33.885Z,18.40
2017-06-26T11:54:00.166Z,18.30
2017-06-26T11:56:27.203Z,18.30
2017-06-26T11:58:54.259Z,18.70
2017-06-26T12:01:20.574Z,18.60
2017-06-26T12:03:47.618Z,18.50
2017-06-26T12:06:14.650Z,18.70
2017-06-26T12:08:40.926Z,18.60
2017-06-26T12:11:07.709Z,18.70
2017-06-26T12:13:33.962Z,18.10
2017-06-26T12:16:00.262Z,18.10
2017-06-26T12:18:26.542Z,18.30
2017-06-26T12:20:52.848Z,18.40
2017-06-26T12:23:19.114Z,18.40
2017-06-26T12:25:45.410Z,18.30
2017-06-26T12:28:11.695Z,18.50
2017-06-26T12:30:37.967Z,18.70
2017-06-26T12:33:04.260Z,19.00
2017-06-26T12:35:30.554Z,19.20
2017-06-26T12:37:56.886Z,19.00
2017-06-26T12:40:23.172Z,18.80
2017-06-26T12:42:49.454Z,18.80
2017-06-26T12:45:15.729Z,18.70
2017-06-26T12:47:42.037Z,18.30
2017-06-26T12:50:08.303Z,18.20
2017-06-26T12:52:34.581Z,18.20
2017-06-26T12:55:00.912Z,18.40
2017-06-26T12:57:27.193Z,18.10
2017-06-26T12:59:53.485Z,17.80
2017-06-26T13:02:19.780Z,18.00
2017-06-26T13:04:46.052Z,18.00
2017-06-26T13:07:12.351Z,18.00
2017-06-26T13:09:38.613Z,18.20
2017-06-26T13:12:05.194Z,18.30
2017-06-26T13:14:32.237Z,18.40
2017-06-26T13:16:59.249Z,18.80
2017-06-26T13:19:25.549Z,18.80
2017-06-26T13:21:51.810Z,19.10
2017-06-26T13:24:18.134Z,19.40
2017-06-26T13:26:44.389Z,19.40
2017-06-26T13:29:10.657Z,19.40
2017-06-26T13:31:36.953Z,19.70
2017-06-26T13:34:03.971Z,19.80
2017-06-26T13:36:30.251Z,19.80
2017-06-26T13:38:56.518Z,19.80
2017-06-26T13:41:22.805Z,20.00
2017-06-26T13:43:49.094Z,19.60
2017-06-26T13:46:15.384Z,19.30
2017-06-26T13:48:41.662Z,19.60
2017-06-26T13:51:08.698Z,19.10
2017-06-26T13:53:34.965Z,19.00
2017-06-26T13:56:01.283Z,18.70
2017-06-26T13:58:28.295Z,19.20
2017-06-26T14:00:54.569Z,19.20
2017-06-26T14:03:21.627Z,19.80
2017-06-26T14:05:47.891Z,19.90
2017-06-26T14:08:14.166Z,20.20
2017-06-26T14:10:41.182Z,20.20
2017-06-26T14:13:07.480Z,20.20
2017-06-26T14:15:33.749Z,20.00
2017-06-26T14:18:00.020Z,20.30
2017-06-26T14:20:27.086Z,20.60
2017-06-26T14:22:53.381Z,20.60
2017-06-26T14:25:19.651Z,21.00
2017-06-26T14:27:45.959Z,20.90
2017-06-26T14:30:12.277Z,20.50
2017-06-26T14:32:38.644Z,20.80
2017-06-26T14:35:04.931Z,21.00
2017-06-26T14:37:31.225Z,21.40
2017-06-26T14:39:57.515Z,21.40
2017-06-26T14:42:23.791Z,20.90
2017-06-26T14:44:50.100Z,20.70
2017-06-26T14:47:16.374Z,20.80
2017-06-26T14:49:43.418Z,20.80
2017-06-26T14:52:10.450Z,20.30
2017-06-26T14:54:37.496Z,20.60
2017-06-26T14:57:04.539Z,21.40
2017-06-26T14:59:31.598Z,21.40
2017-06-26T15:01:58.635Z,21.40
2017-06-26T15:04:24.946Z,21.30
2017-06-26T15:06:51.286Z,21.70
2017-06-26T15:09:17.613Z,21.90
2017-06-26T15:11:43.942Z,22.00
2017-06-26T15:14:10.230Z,21.30
2017-06-26T15:16:36.542Z,20.80
2017-06-26T15:19:03.541Z,20.10
2017-06-26T15:21:29.813Z,20.10
2017-06-26T15:23:57.040Z,20.30
2017-06-26T15:26:23.355Z,19.90
2017-06-26T15:28:49.670Z,20.20
2017-06-26T15:31:15.944Z,22.20
2017-06-26T15:33:43.024Z,22.90
2017-06-26T15:36:09.313Z,22.90
2017-06-26T15:38:35.727Z,22.30
2017-06-26T15:41:02.032Z,22.30
2017-06-26T15:43:29.228Z,23.20
2017-06-26T15:45:55.501Z,23.30
2017-06-26T15:48:21.785Z,24.70
2017-06-26T15:50:48.832Z,25.60
2017-06-26T15:53:15.143Z,25.50
2017-06-26T15:55:41.424Z,24.60
2017-06-26T15:58:07.718Z,23.60
2017-06-26T16:00:34.002Z,23.30
2017-06-26T16:03:00.286Z,22.60
2017-06-26T16:05:26.593Z,24.30
2017-06-26T16:07:52.895Z,23.30
2017-06-26T16:10:19.169Z,22.30
2017-06-26T16:12:45.433Z,22.70
2017-06-26T16:15:11.757Z,22.90
2017-06-26T16:17:38.045Z,23.40
2017-06-26T16:20:04.324Z,22.50
2017-06-26T16:22:30.618Z,21.60
2017-06-26T16:24:57.650Z,22.20
2017-06-26T16:27:23.950Z,22.20
2017-06-26T16:29:50.258Z,23.40
2017-06-26T16:32:16.558Z,24.10
2017-06-26T16:34:43.505Z,23.80
2017-06-26T16:37:09.813Z,23.10
2017-06-26T16:39:36.106Z,22.80
2017-06-26T16:42:02.385Z,23.00
2017-06-26T16:44:28.684Z,23.40
2017-06-26T16:46:54.962Z,23.70
2017-06-26T16:49:21.977Z,24.40
2017-06-26T16:51:48.278Z,24.40
2017-06-26T16:54:14.558Z,24.30
2017-06-26T16:56:40.842Z,24.70
2017-06-26T16:59:08.163Z,23.80
2017-06-26T17:01:34.469Z,23.00
2017-06-26T17:04:00.724Z,24.00
2017-06-26T17:06:27.000Z,24.30
2017-06-26T17:08:53.307Z,24.40
2017-06-26T17:11:19.586Z,23.30
2017-06-26T17:13:45.918Z,24.60
2017-06-26T17:16:12.941Z,23.40
2017-06-26T17:18:39.267Z,23.30
2017-06-26T17:21:06.106Z,24.30
2017-06-26T17:23:32.421Z,25.10
2017-06-26T17:25:58.707Z,24.80
2017-06-26T17:28:25.032Z,26.10
2017-06-26T17:30:51.348Z,25.10
2017-06-26T17:33:18.401Z,25.20
2017-06-26T17:35:44.726Z,25.10
2017-06-26T17:38:11.110Z,25.00
2017-06-26T17:40:37.407Z,25.40
2017-06-26T17:43:03.725Z,25.40
2017-06-26T17:45:30.036Z,25.40
2017-06-26T17:47:56.310Z,24.70
2017-06-26T17:50:22.603Z,25.40
2017-06-26T17:52:48.885Z,25.90
2017-06-26T17:55:15.186Z,25.20
2017-06-26T17:57:41.475Z,26.40
2017-06-26T18:00:07.786Z,26.40
2017-06-26T18:02:34.056Z,25.00
2017-06-26T18:05:00.333Z,26.00
2017-06-26T18:07:26.613Z,25.20
2017-06-26T18:09:52.918Z,24.30
2017-06-26T18:12:19.223Z,23.90
2017-06-26T18:14:45.493Z,23.50
2017-06-26T18:17:11.819Z,24.10
2017-06-26T18:19:38.121Z,24.40
2017-06-26T18:22:04.405Z,24.70
2017-06-26T18:24:30.703Z,24.10
2017-06-26T18:26:57.015Z,23.70
2017-06-26T18:29:23.315Z,23.80
2017-06-26T18:31:49.616Z,24.40
2017-06-26T18:34:15.925Z,23.80
2017-06-26T18:36:42.227Z,23.50
2017-06-26T18:39:08.514Z,23.00
2017-06-26T18:41:35.585Z,22.30
2017-06-26T18:44:01.888Z,22.20
2017-06-26T18:46:28.157Z,22.30
2017-06-26T18:48:54.461Z,21.30
2017-06-26T18:51:20.751Z,22.30
2017-06-26T18:53:47.019Z,22.70
2017-06-26T18:56:13.309Z,22.20
2017-06-26T18:58:39.581Z,22.50
2017-06-26T19:01:05.870Z,21.90
2017-06-26T19:03:32.142Z,21.50
2017-06-26T19:05:58.474Z,21.30
2017-06-26T19:08:24.754Z,21.60
2017-06-26T19:10:51.053Z,21.60
2017-06-26T19:13:17.339Z,21.00
2017-06-26T19:15:43.622Z,20.80
2017-06-26T19:18:09.902Z,20.50
2017-06-26T19:20:36.191Z,20.20
2017-06-26T19:23:02.460Z,20.30
2017-06-26T19:25:29.459Z,20.30
2017-06-26T19:27:55.737Z,20.20
2017-06-26T19:30:22.022Z,20.00
2017-06-26T19:32:48.301Z,19.30
2017-06-26T19:35:14.585Z,19.30
2017-06-26T19:37:42.374Z,18.60
2017-06-26T19:40:09.587Z,18.60
2017-06-26T19:42:35.897Z,18.50
2017-06-26T19:45:02.193Z,18.50
2017-06-26T19:47:29.238Z,18.50
2017-06-26T19:49:56.262Z,18.10
2017-06-26T19:52:22.555Z,18.00
2017-06-26T19:54:48.858Z,18.30
2017-06-26T19:57:15.145Z,18.00
2017-06-26T19:59:41.426Z,18.10
2017-06-26T20:02:07.808Z,18.10
2017-06-26T20:04:34.090Z,18.30
2017-06-26T20:07:00.370Z,18.10
2017-06-26T20:09:26.651Z,18.00
2017-06-26T20:11:52.926Z,17.90
2017-06-26T20:14:19.204Z,18.10
2017-06-26T20:16:45.490Z,18.20
2017-06-26T20:19:11.895Z,18.30
2017-06-26T20:21:38.329Z,18.00
2017-06-26T20:24:04.639Z,17.90
2017-06-26T20:26:30.918Z,18.00
2017-06-26T20:28:57.212Z,18.00
2017-06-26T20:31:23.486Z,17.90
2017-06-26T20:33:49.814Z,17.80
2017-06-26T20:36:23.737Z,17.60
2017-06-26T20:38:50.041Z,17.60
2017-06-26T20:41:16.336Z,17.50
2017-06-26T20:43:42.674Z,17.50
2017-06-26T20:46:08.978Z,17.40
2017-06-26T20:48:35.265Z,17.50
2017-06-26T20:51:02.346Z,17.00
2017-06-26T20:53:28.634Z,17.00
2017-06-26T20:55:54.931Z,17.30
2017-06-26T20:58:21.231Z,17.30
2017-06-26T21:00:47.530Z,17.10
2017-06-26T21:03:13.850Z,16.80
2017-06-26T21:05:40.140Z,17.00
2017-06-26T21:08:06.423Z,16.50
2017-06-26T21:10:33.439Z,15.90
2017-06-26T21:12:59.707Z,15.90
2017-06-26T21:15:26.720Z,15.80
2017-06-26T21:17:52.997Z,15.70
2017-06-26T21:20:19.277Z,15.80
2017-06-26T21:22:45.587Z,15.90
2017-06-26T21:25:11.963Z,16.00
2017-06-26T21:27:38.989Z,15.60
2017-06-26T21:30:05.271Z,15.60
2017-06-26T21:32:31.538Z,15.90
2017-06-26T21:34:57.842Z,15.70
2017-06-26T21:37:24.119Z,15.70
2017-06-26T21:39:50.401Z,15.90
2017-06-26T21:42:16.673Z,15.50
2017-06-26T21:44:42.966Z,15.50
2017-06-26T21:47:09.212Z,15.80
2017-06-26T21:49:35.503Z,16.00
2017-06-26T21:52:01.770Z,15.70
2017-06-26T21:54:28.057Z,15.60
2017-06-26T21:56:54.320Z,15.50
2017-06-26T21:59:20.590Z,15.20
2017-06-26T22:01:47.625Z,15.10
2017-06-26T22:04:14.643Z,14.90
2017-06-26T22:06:40.918Z,14.90
2017-06-26T22:09:07.951Z,15.20
2017-06-26T22:11:34.240Z,15.20
2017-06-26T22:14:00.506Z,15.10
2017-06-26T22:16:26.800Z,15.10
2017-06-26T22:18:53.079Z,15.00
2017-06-26T22:21:20.105Z,15.10
2017-06-26T22:23:46.389Z,15.10
2017-06-26T22:26:12.674Z,14.70
2017-06-26T22:28:39.706Z,14.70
2017-06-26T22:31:05.970Z,14.60
2017-06-26T22:33:32.986Z,14.80
2017-06-26T22:35:59.261Z,14.70
2017-06-26T22:38:25.569Z,14.70
2017-06-26T22:40:52.588Z,14.90
2017-06-26T22:43:18.894Z,14.80
2017-06-26T22:45:45.181Z,14.80
2017-06-26T22:48:11.475Z,14.70
2017-06-26T22:50:37.754Z,14.70
2017-06-26T22:53:04.070Z,14.40
2017-06-26T22:55:30.351Z,14.70
2017-06-26T22:57:56.650Z,14.60
2017-06-26T23:00:22.964Z,14.40
2017-06-26T23:02:49.313Z,14.40
2017-06-26T23:05:16.393Z,14.30
2017-06-26T23:07:42.673Z,14.20
2017-06-26T23:10:08.952Z,14.30
2017-06-26T23:12:35.225Z,13.90
2017-06-26T23:15:01.501Z,14.00
2017-06-26T23:17:27.798Z,13.80
2017-06-26T23:19:54.118Z,13.90
2017-06-26T23:22:20.397Z,13.80
2017-06-26T23:24:46.679Z,13.90
2017-06-26T23:27:12.951Z,13.80
2017-06-26T23:29:39.251Z,13.90
2017-06-26T23:32:05.520Z,13.70
2017-06-26T23:34:31.817Z,13.80
2017-06-26T23:36:58.119Z,13.60
2017-06-26T23:39:24.392Z,13.60
2017-06-26T23:41:50.662Z,13.50
2017-06-26T23:44:17.690Z,13.60
2017-06-26T23:46:43.977Z,13.60
2017-06-26T23:49:10.253Z,13.80
2017-06-26T23:51:37.311Z,13.60
2017-06-26T23:54:04.318Z,13.50
2017-06-26T23:56:30.597Z,13.50
2017-06-26T23:58:56.907Z,13.40
